createdAt,value
2019-03-01T00:01:22.581Z,25.32
2019-03-01T00:03:54.074Z,26.73
2019-03-01T00:06:27.166Z,23.73
2019-03-01T00:09:07.430Z,26.45
2019-03-01T00:11:47.981Z,25.85
2019-03-01T00:14:22.324Z,25.05
2019-03-01T00:17:22.534Z,25.85
2019-03-01T00:20:28.843Z,24.72
2019-03-01T00:23:03.233Z,25.90
2019-03-01T00:25:53.077Z,24.20
2019-03-01T00:28:30.513Z,24.25
2019-03-01T00:31:11.176Z,25.02
2019-03-01T00:33:51.546Z,24.12
2019-03-01T00:36:51.800Z,24.87
2019-03-01T00:39:32.299Z,24.00
2019-03-01T00:42:20.381Z,25.70
2019-03-01T00:44:48.950Z,26.57
2019-03-01T00:47:17.389Z,28.15
2019-03-01T00:49:45.872Z,27.67
2019-03-01T00:52:14.418Z,26.95
2019-03-01T00:54:42.898Z,29.35
2019-03-01T00:57:11.362Z,27.35
2019-03-01T00:59:39.827Z,26.50
2019-03-01T01:02:08.299Z,29.12
2019-03-01T01:04:36.730Z,27.80
2019-03-01T01:07:05.212Z,29.12
2019-03-01T01:09:33.636Z,28.85
2019-03-01T01:12:02.246Z,29.27
2019-03-01T01:14:30.708Z,30.05
2019-03-01T01:16:59.164Z,30.82
2019-03-01T01:19:27.662Z,31.02
2019-03-01T01:21:56.144Z,30.32
2019-03-01T01:24:24.590Z,29.07
2019-03-01T01:26:53.028Z,26.87
2019-03-01T01:29:21.503Z,26.93
2019-03-01T01:31:49.952Z,27.37
2019-03-01T01:34:18.398Z,24.63
2019-03-01T01:36:46.864Z,25.37
2019-03-01T01:39:16.364Z,24.92
2019-03-01T01:41:44.827Z,26.10
2019-03-01T01:44:13.295Z,26.17
2019-03-01T01:46:41.754Z,28.05
2019-03-01T01:49:10.196Z,27.42
2019-03-01T01:51:38.672Z,26.25
2019-03-01T01:54:07.142Z,27.35
2019-03-01T01:56:35.603Z,27.77
2019-03-01T01:59:04.062Z,27.37
2019-03-01T02:01:32.548Z,26.20
2019-03-01T02:04:01.000Z,29.63
2019-03-01T02:06:29.604Z,27.82
2019-03-01T02:08:58.070Z,28.10
2019-03-01T02:11:26.516Z,27.82
2019-03-01T02:13:54.966Z,26.90
2019-03-01T02:16:23.428Z,27.62
2019-03-01T02:18:57.827Z,26.37
2019-03-01T02:21:22.052Z,27.13
2019-03-01T02:23:50.520Z,26.37
2019-03-01T02:26:18.968Z,27.00
2019-03-01T02:28:47.432Z,26.17
2019-03-01T02:31:16.059Z,27.55
2019-03-01T02:33:44.542Z,27.75
2019-03-01T02:36:13.002Z,26.97
2019-03-01T02:38:41.464Z,25.68
2019-03-01T02:41:09.946Z,26.05
2019-03-01T02:43:38.385Z,26.10
2019-03-01T02:46:06.808Z,26.75
2019-03-01T02:48:35.287Z,27.48
2019-03-01T02:51:03.765Z,25.90
2019-03-01T02:53:32.202Z,24.23
2019-03-01T02:56:00.652Z,25.70
2019-03-01T02:58:29.094Z,24.63
2019-03-01T03:00:57.556Z,24.67
2019-03-01T03:03:26.001Z,24.70
2019-03-01T03:05:59.235Z,24.02
2019-03-01T03:08:27.681Z,24.70
2019-03-01T03:10:56.168Z,24.72
2019-03-01T03:13:24.609Z,24.70
2019-03-01T03:15:54.244Z,25.88
2019-03-01T03:18:23.154Z,25.12
2019-03-01T03:20:51.627Z,24.47
2019-03-01T03:23:20.101Z,24.95
2019-03-01T03:25:48.533Z,25.40
2019-03-01T03:28:16.992Z,26.20
2019-03-01T03:30:45.447Z,25.17
2019-03-01T03:33:13.913Z,23.90
2019-03-01T03:35:43.719Z,24.65
2019-03-01T03:38:12.158Z,24.70
2019-03-01T03:40:40.619Z,25.25
2019-03-01T03:43:09.070Z,25.27
2019-03-01T03:45:37.536Z,23.12
2019-03-01T03:48:05.974Z,27.02
2019-03-01T03:50:34.715Z,24.75
2019-03-01T03:53:03.227Z,26.12
2019-03-01T03:55:31.622Z,25.23
2019-03-01T03:58:00.085Z,26.45
2019-03-01T04:00:28.535Z,25.00
2019-03-01T04:02:56.983Z,24.72
2019-03-01T04:05:26.947Z,25.52
2019-03-01T04:07:55.389Z,28.67
2019-03-01T04:10:23.867Z,28.75
2019-03-01T04:12:52.299Z,29.35
2019-03-01T04:15:20.803Z,28.07
2019-03-01T04:17:49.213Z,27.62
2019-03-01T04:20:18.751Z,28.32
2019-03-01T04:22:47.241Z,26.60
2019-03-01T04:25:15.682Z,26.12
2019-03-01T04:27:44.157Z,26.57
2019-03-01T04:30:14.973Z,27.35
2019-03-01T04:32:43.433Z,27.73
2019-03-01T04:35:12.041Z,26.77
2019-03-01T04:37:40.488Z,27.75
2019-03-01T04:40:11.297Z,25.57
2019-03-01T04:42:39.740Z,25.70
2019-03-01T04:45:10.860Z,26.97
2019-03-01T04:47:39.335Z,25.00
2019-03-01T04:50:10.380Z,27.07
2019-03-01T04:52:39.042Z,25.80
2019-03-01T04:55:10.302Z,25.95
2019-03-01T04:57:38.756Z,25.45
2019-03-01T05:00:10.270Z,26.02
2019-03-01T05:02:38.709Z,22.98
2019-03-01T05:05:07.264Z,24.77
2019-03-01T05:07:35.720Z,25.27
2019-03-01T05:10:06.309Z,26.45
2019-03-01T05:12:34.782Z,24.37
2019-03-01T05:15:03.626Z,26.23
2019-03-01T05:17:32.190Z,25.37
2019-03-01T05:20:01.007Z,23.67
2019-03-01T05:22:29.455Z,24.12
2019-03-01T05:24:57.907Z,23.20
2019-03-01T05:27:26.370Z,25.30
2019-03-01T05:29:54.861Z,26.20
2019-03-01T05:32:23.305Z,24.32
2019-03-01T05:34:51.789Z,26.27
2019-03-01T05:37:20.243Z,28.40
2019-03-01T05:39:48.678Z,29.67
2019-03-01T05:42:17.145Z,30.10
2019-03-01T05:44:45.582Z,31.48
2019-03-01T05:47:14.044Z,30.57
2019-03-01T05:49:42.524Z,30.17
2019-03-01T05:52:11.006Z,32.15
2019-03-01T05:54:39.459Z,33.50
2019-03-01T05:57:07.897Z,33.02
2019-03-01T05:59:36.371Z,34.58
2019-03-01T06:02:07.889Z,37.88
2019-03-01T06:04:42.222Z,34.25
2019-03-01T06:07:28.689Z,34.35
2019-03-01T06:10:00.356Z,35.80
2019-03-01T06:12:34.511Z,36.17
2019-03-01T06:15:34.291Z,37.88
2019-03-01T06:18:38.868Z,37.88
2019-03-01T06:21:29.624Z,35.35
2019-03-01T06:24:03.665Z,34.80
2019-03-01T06:26:47.261Z,36.63
2019-03-01T06:29:24.331Z,38.00
2019-03-01T06:32:13.802Z,39.05
2019-03-01T06:34:57.054Z,38.45
2019-03-01T06:37:46.364Z,37.23
2019-03-01T06:40:30.892Z,37.60
2019-03-01T06:43:10.734Z,36.28
2019-03-01T06:45:48.367Z,36.15
2019-03-01T06:48:18.499Z,35.00
2019-03-01T06:50:48.653Z,37.70
2019-03-01T06:53:17.119Z,36.03
2019-03-01T06:55:45.657Z,36.90
2019-03-01T06:58:17.566Z,37.30
2019-03-01T07:00:50.376Z,37.17
2019-03-01T07:03:17.883Z,38.88
2019-03-01T07:05:46.407Z,39.65
2019-03-01T07:08:14.926Z,37.55
2019-03-01T07:10:43.379Z,34.92
2019-03-01T07:13:11.859Z,35.83
2019-03-01T07:15:40.317Z,36.50
2019-03-01T07:18:08.811Z,37.03
2019-03-01T07:20:37.266Z,35.15
2019-03-01T07:23:05.833Z,35.40
2019-03-01T07:25:34.301Z,39.40
2019-03-01T07:28:02.786Z,39.15
2019-03-01T07:30:31.251Z,42.95
2019-03-01T07:32:59.699Z,41.13
2019-03-01T07:35:28.181Z,39.10
2019-03-01T07:37:56.629Z,37.55
2019-03-01T07:40:25.088Z,36.23
2019-03-01T07:42:53.587Z,36.23
2019-03-01T07:45:22.121Z,37.33
2019-03-01T07:47:50.626Z,38.75
2019-03-01T07:50:19.070Z,41.68
2019-03-01T07:52:47.543Z,43.87
2019-03-01T07:55:16.019Z,37.03
2019-03-01T07:57:46.555Z,32.88
2019-03-01T08:00:17.905Z,31.57
2019-03-01T08:02:46.338Z,31.42
2019-03-01T08:05:16.399Z,37.28
2019-03-01T08:07:55.413Z,31.55
2019-03-01T08:10:20.922Z,30.95
2019-03-01T08:12:47.461Z,31.27
2019-03-01T08:15:17.403Z,31.75
2019-03-01T08:17:45.887Z,31.23
2019-03-01T08:20:15.968Z,31.45
2019-03-01T08:22:48.559Z,33.18
2019-03-01T08:25:14.718Z,31.82
2019-03-01T08:27:46.314Z,32.20
2019-03-01T08:30:15.672Z,30.75
2019-03-01T08:32:44.334Z,32.73
2019-03-01T08:35:14.039Z,31.33
2019-03-01T08:37:42.514Z,31.82
2019-03-01T08:40:14.652Z,33.35
2019-03-01T08:42:43.977Z,33.15
2019-03-01T08:45:15.101Z,32.25
2019-03-01T08:47:43.567Z,32.90
2019-03-01T08:50:16.509Z,31.57
2019-03-01T08:52:45.813Z,31.85
2019-03-01T08:55:16.863Z,40.30
2019-03-01T08:57:45.299Z,33.83
2019-03-01T09:00:16.736Z,35.20
2019-03-01T09:02:45.202Z,32.55
2019-03-01T09:05:14.126Z,34.88
2019-03-01T09:07:42.597Z,31.23
2019-03-01T09:10:14.064Z,33.50
2019-03-01T09:12:42.522Z,32.73
2019-03-01T09:15:13.343Z,31.60
2019-03-01T09:17:41.864Z,33.15
2019-03-01T09:20:12.567Z,33.13
2019-03-01T09:22:41.013Z,35.48
2019-03-01T09:25:11.721Z,32.85
2019-03-01T09:27:40.209Z,31.97
2019-03-01T09:30:17.590Z,34.25
2019-03-01T09:32:46.126Z,33.85
2019-03-01T09:35:19.718Z,35.28
2019-03-01T09:37:48.158Z,31.02
2019-03-01T09:40:16.611Z,31.77
2019-03-01T09:42:47.455Z,32.38
2019-03-01T09:45:15.292Z,30.43
2019-03-01T09:47:43.743Z,32.90
2019-03-01T09:50:12.767Z,33.50
2019-03-01T09:52:42.877Z,33.18
2019-03-01T09:55:12.651Z,33.95
2019-03-01T09:57:41.144Z,46.77
2019-03-01T10:00:27.880Z,34.40
2019-03-01T10:02:58.453Z,33.13
2019-03-01T10:05:26.510Z,32.60
2019-03-01T10:07:54.991Z,33.40
2019-03-01T10:10:29.237Z,36.33
2019-03-01T10:12:57.696Z,34.40
2019-03-01T10:15:26.215Z,34.58
2019-03-01T10:17:54.731Z,33.90
2019-03-01T10:20:23.240Z,34.88
2019-03-01T10:22:51.699Z,37.67
2019-03-01T10:25:21.167Z,35.80
2019-03-01T10:27:49.828Z,36.42
2019-03-01T10:30:21.346Z,33.55
2019-03-01T10:32:49.867Z,36.00
2019-03-01T10:35:18.502Z,35.85
2019-03-01T10:37:47.429Z,35.48
2019-03-01T10:40:23.311Z,33.90
2019-03-01T10:42:51.820Z,34.88
2019-03-01T10:45:25.291Z,34.65
2019-03-01T10:47:53.782Z,35.00
2019-03-01T10:50:22.247Z,38.33
2019-03-01T10:52:50.691Z,34.40
2019-03-01T10:55:20.106Z,37.53
2019-03-01T10:57:48.686Z,37.55
2019-03-01T11:00:26.186Z,38.38
2019-03-01T11:02:55.477Z,37.88
2019-03-01T11:05:24.319Z,40.65
2019-03-01T11:07:54.010Z,37.42
2019-03-01T11:10:25.443Z,40.43
2019-03-01T11:12:53.896Z,40.92
2019-03-01T11:15:22.543Z,39.13
2019-03-01T11:17:50.993Z,40.23
2019-03-01T11:20:20.769Z,42.10
2019-03-01T11:22:49.461Z,41.13
2019-03-01T11:25:22.888Z,42.80
2019-03-01T11:27:51.503Z,44.38
2019-03-01T11:30:25.514Z,42.80
2019-03-01T11:32:53.990Z,41.20
2019-03-01T11:35:22.507Z,40.30
2019-03-01T11:37:50.992Z,42.05
2019-03-01T11:40:34.063Z,41.53
2019-03-01T11:43:02.672Z,45.35
2019-03-01T11:45:31.131Z,44.18
2019-03-01T11:47:59.598Z,40.48
2019-03-01T11:50:28.089Z,43.35
2019-03-01T11:52:56.531Z,40.95
2019-03-01T11:55:25.047Z,43.50
2019-03-01T11:57:53.587Z,45.60
2019-03-01T12:00:26.126Z,44.15
2019-03-01T12:02:54.585Z,41.23
2019-03-01T12:05:23.073Z,43.50
2019-03-01T12:07:51.540Z,44.08
2019-03-01T12:10:28.644Z,41.10
2019-03-01T12:12:57.112Z,37.75
2019-03-01T12:15:25.712Z,36.42
2019-03-01T12:17:54.166Z,37.85
2019-03-01T12:20:31.315Z,33.92
2019-03-01T12:22:59.939Z,36.38
2019-03-01T12:25:28.399Z,32.08
2019-03-01T12:27:56.848Z,43.35
2019-03-01T12:30:28.060Z,37.73
2019-03-01T12:32:56.561Z,36.75
2019-03-01T12:35:25.071Z,32.60
2019-03-01T12:37:53.506Z,34.92
2019-03-01T12:40:29.670Z,30.85
2019-03-01T12:42:58.182Z,30.45
2019-03-01T12:45:26.651Z,28.83
2019-03-01T12:47:55.158Z,30.48
2019-03-01T12:50:23.628Z,30.27
2019-03-01T12:52:52.072Z,30.65
2019-03-01T12:55:25.663Z,31.33
2019-03-01T12:57:54.136Z,28.52
2019-03-01T13:00:33.445Z,28.35
2019-03-01T13:03:05.351Z,28.30
2019-03-01T13:05:32.102Z,28.80
2019-03-01T13:08:00.547Z,29.55
2019-03-01T13:10:40.365Z,25.12
2019-03-01T13:13:08.575Z,28.10
2019-03-01T13:15:37.244Z,28.98
2019-03-01T13:18:05.702Z,26.48
2019-03-01T13:20:37.267Z,24.82
2019-03-01T13:23:08.664Z,26.97
2019-03-01T13:25:37.128Z,20.75
2019-03-01T13:31:01.150Z,18.57
2019-03-01T13:33:29.594Z,19.20
2019-03-01T13:35:59.961Z,18.60
2019-03-01T13:38:30.393Z,14.45
2019-03-01T13:40:58.777Z,17.30
2019-03-01T13:43:28.653Z,14.13
2019-03-01T13:45:57.171Z,14.10
2019-03-01T13:48:25.606Z,12.88
2019-03-01T13:50:54.077Z,15.00
2019-03-01T13:53:22.899Z,14.85
2019-03-01T13:55:51.349Z,14.63
2019-03-01T13:58:20.456Z,13.62
2019-03-01T14:00:49.653Z,22.37
2019-03-01T14:03:20.795Z,12.20
2019-03-01T14:05:51.179Z,11.48
2019-03-01T14:08:18.653Z,10.60
2019-03-01T14:10:47.111Z,10.68
2019-03-01T14:13:15.777Z,26.62
2019-03-01T14:15:44.410Z,11.48
2019-03-01T14:18:12.861Z,10.72
2019-03-01T14:20:41.328Z,10.43
2019-03-01T14:23:09.776Z,10.00
2019-03-01T14:25:38.614Z,10.53
2019-03-01T14:28:08.505Z,12.82
2019-03-01T14:30:36.966Z,12.23
2019-03-01T14:33:05.424Z,10.93
2019-03-01T14:35:33.906Z,10.70
2019-03-01T14:38:02.380Z,11.08
2019-03-01T14:40:30.849Z,10.25
2019-03-01T14:42:59.296Z,11.18
2019-03-01T14:45:32.559Z,11.63
2019-03-01T14:48:01.500Z,10.50
2019-03-01T14:50:33.665Z,9.65
2019-03-01T14:53:01.262Z,11.85
2019-03-01T14:55:38.983Z,11.40
2019-03-01T14:58:19.018Z,10.25
2019-03-01T15:00:53.390Z,11.95
2019-03-01T15:03:28.080Z,9.88
2019-03-01T15:05:56.559Z,10.55
2019-03-01T15:08:25.000Z,13.85
2019-03-01T15:10:53.614Z,8.93
2019-03-01T15:13:22.074Z,9.10
2019-03-01T15:15:50.584Z,9.55
2019-03-01T15:18:19.059Z,8.23
2019-03-01T15:20:47.514Z,7.50
2019-03-01T15:23:15.946Z,7.85
2019-03-01T15:25:47.468Z,8.43
2019-03-01T15:28:16.659Z,7.55
2019-03-01T15:30:46.430Z,11.55
2019-03-01T15:33:15.113Z,7.70
2019-03-01T15:35:43.601Z,6.03
2019-03-01T15:38:12.040Z,7.67
2019-03-01T15:40:40.492Z,8.43
2019-03-01T15:43:09.200Z,8.30
2019-03-01T15:45:39.875Z,6.37
2019-03-01T15:48:08.010Z,7.20
2019-03-01T15:50:36.696Z,6.17
2019-03-01T15:53:05.148Z,6.75
2019-03-01T15:55:33.787Z,6.45
2019-03-01T15:58:02.230Z,6.70
2019-03-01T16:00:30.687Z,6.28
2019-03-01T16:02:59.126Z,5.62
2019-03-01T16:05:27.659Z,6.50
2019-03-01T16:07:56.143Z,5.40
2019-03-01T16:10:24.639Z,4.42
2019-03-01T16:12:53.099Z,6.05
2019-03-01T16:15:21.578Z,6.75
2019-03-01T16:17:50.046Z,5.58
2019-03-01T16:20:19.938Z,6.55
2019-03-01T16:22:51.090Z,6.33
2019-03-01T16:25:20.643Z,6.92
2019-03-01T16:27:50.752Z,6.10
2019-03-01T16:30:20.791Z,7.00
2019-03-01T16:32:50.620Z,6.00
2019-03-01T16:35:20.427Z,5.45
2019-03-01T16:37:50.582Z,6.08
2019-03-01T16:40:20.591Z,7.35
2019-03-01T16:42:54.132Z,5.53
2019-03-01T16:45:21.161Z,8.85
2019-03-01T16:47:50.431Z,6.58
2019-03-01T16:50:20.311Z,5.65
2019-03-01T16:52:48.760Z,6.70
2019-03-01T16:55:19.647Z,5.95
2019-03-01T16:57:51.874Z,5.25
2019-03-01T17:00:19.747Z,5.80
2019-03-01T17:02:49.825Z,6.67
2019-03-01T17:05:18.257Z,5.80
2019-03-01T17:07:46.806Z,5.50
2019-03-01T17:10:20.158Z,4.95
2019-03-01T17:12:48.891Z,5.42
2019-03-01T17:15:23.747Z,6.05
2019-03-01T17:17:52.200Z,5.53
2019-03-01T17:20:20.645Z,5.50
2019-03-01T17:22:49.907Z,5.60
2019-03-01T17:25:19.546Z,5.60
2019-03-01T17:27:49.621Z,5.78
2019-03-01T17:30:21.071Z,7.40
2019-03-01T17:32:49.577Z,6.95
2019-03-01T17:35:18.199Z,6.92
2019-03-01T17:37:46.647Z,5.53
2019-03-01T17:40:19.873Z,5.28
2019-03-01T17:42:48.541Z,6.95
2019-03-01T17:45:22.238Z,6.50
2019-03-01T17:47:50.849Z,6.75
2019-03-01T17:50:19.369Z,6.72
2019-03-01T17:52:47.798Z,7.05
2019-03-01T17:55:24.630Z,6.75
2019-03-01T17:57:53.289Z,6.97
2019-03-01T18:00:43.609Z,8.20
2019-03-01T18:03:12.617Z,7.58
2019-03-01T18:05:41.530Z,6.80
2019-03-01T18:08:10.081Z,7.42
2019-03-01T18:10:38.527Z,7.42
2019-03-01T18:13:07.057Z,6.60
2019-03-01T18:15:35.499Z,7.28
2019-03-01T18:18:04.116Z,8.78
2019-03-01T18:20:33.973Z,7.78
2019-03-01T18:23:03.183Z,7.70
2019-03-01T18:25:31.805Z,6.47
2019-03-01T18:28:00.279Z,7.17
2019-03-01T18:30:31.022Z,7.65
2019-03-01T18:32:59.448Z,6.53
2019-03-01T18:35:27.931Z,8.15
2019-03-01T18:37:56.386Z,7.78
2019-03-01T18:40:24.850Z,8.45
2019-03-01T18:42:53.363Z,9.03
2019-03-01T18:45:23.170Z,8.33
2019-03-01T18:47:51.611Z,8.58
2019-03-01T18:50:27.658Z,11.00
2019-03-01T18:52:55.946Z,11.90
2019-03-01T18:55:24.402Z,10.25
2019-03-01T18:57:52.877Z,8.65
2019-03-01T19:00:32.541Z,7.78
2019-03-01T19:03:00.982Z,7.30
2019-03-01T19:05:31.931Z,6.08
2019-03-01T19:08:00.925Z,5.70
2019-03-01T19:10:30.657Z,5.85
2019-03-01T19:12:59.127Z,6.65
2019-03-01T19:15:27.548Z,13.98
2019-03-01T19:17:56.252Z,6.22
2019-03-01T19:20:27.817Z,6.65
2019-03-01T19:22:56.259Z,6.83
2019-03-01T19:25:25.465Z,6.10
2019-03-01T19:27:55.181Z,7.00
2019-03-01T19:30:24.936Z,5.78
2019-03-01T19:32:53.350Z,6.03
2019-03-01T19:35:28.574Z,5.22
2019-03-01T19:37:51.987Z,5.12
2019-03-01T19:40:22.747Z,5.55
2019-03-01T19:42:51.220Z,5.92
2019-03-01T19:45:20.311Z,5.85
2019-03-01T19:47:48.983Z,5.55
2019-03-01T19:50:25.007Z,5.60
2019-03-01T19:52:53.345Z,5.30
2019-03-01T19:55:21.844Z,5.87
2019-03-01T19:57:50.296Z,6.12
2019-03-01T20:00:20.564Z,8.95
2019-03-01T20:02:49.051Z,5.80
2019-03-01T20:05:20.271Z,5.42
2019-03-01T20:07:51.840Z,4.72
2019-03-01T20:10:19.231Z,5.25
2019-03-01T20:12:47.655Z,4.95
2019-03-01T20:15:24.432Z,4.55
2019-03-01T20:17:53.530Z,4.85
2019-03-01T20:20:23.847Z,5.55
2019-03-01T20:22:54.349Z,5.03
2019-03-01T20:25:22.522Z,5.08
2019-03-01T20:27:51.142Z,5.00
2019-03-01T20:30:30.698Z,4.30
2019-03-01T20:32:59.300Z,4.80
2019-03-01T20:35:28.619Z,5.70
2019-03-01T20:38:00.229Z,5.25
2019-03-01T20:40:28.251Z,5.35
2019-03-01T20:43:00.525Z,6.17
2019-03-01T20:45:31.807Z,5.92
2019-03-01T20:48:00.277Z,5.83
2019-03-01T20:50:28.875Z,5.62
2019-03-01T20:52:57.309Z,5.62
2019-03-01T20:55:25.733Z,6.08
2019-03-01T20:57:54.192Z,4.97
2019-03-01T21:00:26.167Z,6.05
2019-03-01T21:02:55.155Z,5.50
2019-03-01T21:05:24.964Z,5.22
2019-03-01T21:07:54.869Z,5.60
2019-03-01T21:10:24.693Z,5.35
2019-03-01T21:12:53.177Z,6.12
2019-03-01T21:15:22.076Z,4.83
2019-03-01T21:17:53.061Z,5.08
2019-03-01T21:20:21.115Z,4.55
2019-03-01T21:22:49.578Z,5.50
2019-03-01T21:25:24.023Z,5.50
2019-03-01T21:27:52.543Z,5.28
2019-03-01T21:30:29.723Z,6.28
2019-03-01T21:32:58.258Z,6.05
2019-03-01T21:35:26.699Z,6.30
2019-03-01T21:37:55.228Z,5.28
2019-03-01T21:40:23.670Z,5.05
2019-03-01T21:42:52.764Z,5.20
2019-03-01T21:45:23.929Z,5.60
2019-03-01T21:47:52.359Z,5.17
2019-03-01T21:50:21.030Z,5.28
2019-03-01T21:52:49.462Z,4.80
2019-03-01T21:55:28.927Z,4.92
2019-03-01T21:57:58.983Z,4.87
2019-03-01T22:00:31.210Z,5.20
2019-03-01T22:02:59.561Z,5.92
2019-03-01T22:05:27.999Z,5.55
2019-03-01T22:07:56.425Z,4.95
2019-03-01T22:10:24.895Z,4.65
2019-03-01T22:12:53.329Z,4.75
2019-03-01T22:15:27.104Z,4.83
2019-03-01T22:17:56.235Z,5.00
2019-03-01T22:20:24.840Z,5.15
2019-03-01T22:22:53.376Z,5.30
2019-03-01T22:25:21.819Z,5.60
2019-03-01T22:27:50.256Z,4.83
2019-03-01T22:30:34.680Z,4.42
2019-03-01T22:33:03.135Z,4.62
2019-03-01T22:35:31.562Z,4.28
2019-03-01T22:38:01.089Z,4.97
2019-03-01T22:40:30.229Z,4.87
2019-03-01T22:42:58.658Z,4.92
2019-03-01T22:45:27.143Z,5.90
2019-03-01T22:47:55.662Z,5.20
2019-03-01T22:50:24.109Z,5.78
2019-03-01T22:52:52.592Z,5.03
2019-03-01T22:55:21.477Z,5.55
2019-03-01T22:57:49.910Z,4.67
2019-03-01T23:00:48.165Z,4.85
2019-03-01T23:03:18.824Z,4.22
2019-03-01T23:05:48.069Z,5.17
2019-03-01T23:08:16.534Z,5.22
2019-03-01T23:10:44.977Z,5.37
2019-03-01T23:13:16.987Z,5.47
2019-03-01T23:15:44.561Z,6.10
2019-03-01T23:18:13.089Z,5.05
2019-03-01T23:20:41.790Z,5.33
2019-03-01T23:23:10.244Z,5.45
2019-03-01T23:25:38.683Z,5.35
2019-03-01T23:28:09.336Z,5.28
2019-03-01T23:30:37.850Z,5.22
2019-03-01T23:33:06.280Z,5.92
2019-03-01T23:35:34.880Z,6.40
2019-03-01T23:38:03.363Z,5.70
2019-03-01T23:40:32.692Z,5.55
2019-03-01T23:43:01.968Z,5.55
2019-03-01T23:45:30.423Z,5.28
2019-03-01T23:47:58.878Z,5.90
2019-03-01T23:50:27.390Z,5.78
2019-03-01T23:52:58.754Z,5.80
2019-03-01T23:55:26.028Z,8.25
2019-03-01T23:57:54.491Z,7.17
